createdAt,value
2022-10-18T00:00:08.231Z,15.75
2022-10-18T00:02:38.074Z,15.23
2022-10-18T00:05:05.854Z,15.73
2022-10-18T00:07:33.083Z,15.43
2022-10-18T00:10:00.282Z,15.35
2022-10-18T00:12:27.105Z,15.93
2022-10-18T00:14:53.960Z,15.07
2022-10-18T00:17:20.838Z,14.98
2022-10-18T00:19:47.642Z,16.10
2022-10-18T00:22:14.543Z,15.40
2022-10-18T00:24:41.406Z,13.57
2022-10-18T00:27:08.464Z,16.40
2022-10-18T00:29:36.217Z,14.77
2022-10-18T00:32:03.163Z,15.02
2022-10-18T00:34:29.963Z,15.50
2022-10-18T00:36:56.815Z,15.02
2022-10-18T00:39:23.555Z,14.63
2022-10-18T00:41:50.834Z,14.13
2022-10-18T00:44:17.652Z,15.40
2022-10-18T00:46:47.421Z,15.95
2022-10-18T00:49:53.326Z,16.65
2022-10-18T00:52:25.867Z,14.53
2022-10-18T00:54:55.019Z,16.27
2022-10-18T00:57:23.372Z,15.45
2022-10-18T00:59:50.597Z,15.00
2022-10-18T01:02:18.541Z,14.82
2022-10-18T01:04:47.235Z,16.13
2022-10-18T01:07:26.678Z,15.88
2022-10-18T01:10:30.088Z,15.63
2022-10-18T01:13:14.547Z,16.98
2022-10-18T01:15:45.785Z,15.15
2022-10-18T01:18:25.880Z,16.13
2022-10-18T01:21:01.768Z,14.93
2022-10-18T01:23:37.396Z,16.17
2022-10-18T01:26:29.964Z,17.48
2022-10-18T01:29:28.890Z,14.75
2022-10-18T01:32:10.382Z,17.80
2022-10-18T01:34:40.301Z,16.70
2022-10-18T01:37:12.280Z,16.92
2022-10-18T01:39:42.684Z,16.38
2022-10-18T01:42:12.409Z,15.05
2022-10-18T01:44:41.900Z,14.93
2022-10-18T01:47:12.452Z,15.07
2022-10-18T01:49:39.406Z,14.93
2022-10-18T01:54:42.836Z,14.75
2022-10-18T01:57:29.951Z,14.60
2022-10-18T02:00:16.921Z,14.20
2022-10-18T02:02:51.969Z,14.52
2022-10-18T02:05:39.864Z,14.68
2022-10-18T02:08:27.792Z,13.38
2022-10-18T02:11:00.173Z,15.73
2022-10-18T02:13:33.484Z,16.08
2022-10-18T02:16:07.887Z,14.15
2022-10-18T02:18:39.844Z,16.52
2022-10-18T02:21:11.456Z,14.73
2022-10-18T02:23:39.021Z,14.00
2022-10-18T02:26:06.464Z,15.38
2022-10-18T02:28:33.246Z,15.85
2022-10-18T02:31:30.229Z,16.25
2022-10-18T02:34:02.263Z,14.70
2022-10-18T02:36:36.404Z,14.37
2022-10-18T02:39:08.396Z,14.88
2022-10-18T02:41:35.249Z,16.25
2022-10-18T02:44:02.102Z,15.10
2022-10-18T02:46:28.982Z,16.35
2022-10-18T02:48:55.967Z,14.83
2022-10-18T02:51:23.934Z,15.07
2022-10-18T02:53:50.926Z,16.40
2022-10-18T02:56:17.783Z,15.40
2022-10-18T02:58:44.611Z,15.80
2022-10-18T03:01:11.585Z,15.10
2022-10-18T03:03:38.662Z,14.60
2022-10-18T03:06:05.638Z,14.63
2022-10-18T03:08:32.492Z,14.10
2022-10-18T03:10:59.439Z,15.77
2022-10-18T03:13:26.261Z,15.03
2022-10-18T03:15:53.180Z,15.15
2022-10-18T03:18:20.237Z,16.05
2022-10-18T03:20:46.970Z,13.10
2022-10-18T03:23:13.932Z,13.88
2022-10-18T03:25:42.897Z,14.27
2022-10-18T03:28:12.391Z,14.35
2022-10-18T03:30:39.228Z,16.20
2022-10-18T03:33:06.838Z,13.50
2022-10-18T03:35:33.764Z,13.95
2022-10-18T03:38:00.510Z,13.87
2022-10-18T03:40:27.372Z,17.25
2022-10-18T03:42:54.212Z,14.95
2022-10-18T03:45:21.092Z,15.80
2022-10-18T03:47:47.914Z,15.75
2022-10-18T03:50:14.844Z,13.83
2022-10-18T03:52:41.685Z,13.95
2022-10-18T03:55:08.753Z,16.08
2022-10-18T03:57:35.719Z,16.92
2022-10-18T04:00:02.581Z,16.63
2022-10-18T04:02:38.954Z,16.53
2022-10-18T04:05:06.113Z,15.55
2022-10-18T04:07:33.597Z,14.82
2022-10-18T04:10:00.414Z,16.02
2022-10-18T04:12:27.153Z,15.57
2022-10-18T04:14:55.586Z,16.33
2022-10-18T04:17:22.605Z,14.43
2022-10-18T04:19:49.351Z,16.30
2022-10-18T04:22:16.438Z,14.82
2022-10-18T04:24:43.306Z,15.32
2022-10-18T04:27:10.074Z,15.73
2022-10-18T04:29:36.874Z,13.77
2022-10-18T04:32:03.703Z,17.98
2022-10-18T04:34:30.569Z,15.88
2022-10-18T04:36:57.476Z,15.05
2022-10-18T04:39:24.237Z,16.03
2022-10-18T04:41:51.060Z,17.42
2022-10-18T04:44:17.828Z,20.15
2022-10-18T04:46:44.688Z,18.05
2022-10-18T04:49:11.513Z,17.30
2022-10-18T04:51:38.415Z,14.53
2022-10-18T04:54:05.315Z,19.20
2022-10-18T04:56:32.510Z,15.15
2022-10-18T04:58:59.679Z,15.63
2022-10-18T05:01:26.584Z,13.82
2022-10-18T05:03:54.863Z,15.70
2022-10-18T05:06:23.248Z,17.20
2022-10-18T05:08:50.082Z,15.45
2022-10-18T05:11:16.871Z,15.27
2022-10-18T05:13:46.044Z,16.42
2022-10-18T05:16:15.323Z,16.27
2022-10-18T05:18:42.248Z,14.93
2022-10-18T05:21:09.058Z,16.17
2022-10-18T05:23:35.871Z,17.25
2022-10-18T05:26:05.110Z,14.50
2022-10-18T05:28:39.609Z,14.93
2022-10-18T05:31:10.679Z,14.95
2022-10-18T05:33:37.494Z,14.10
2022-10-18T05:36:05.704Z,14.68
2022-10-18T05:38:32.520Z,14.27
2022-10-18T05:40:59.938Z,17.40
2022-10-18T05:43:30.163Z,16.98
2022-10-18T05:45:57.150Z,14.98
2022-10-18T05:48:23.902Z,14.63
2022-10-18T05:50:50.753Z,16.50
2022-10-18T05:53:37.079Z,16.70
2022-10-18T05:56:04.914Z,14.52
2022-10-18T05:58:31.737Z,14.98
2022-10-18T06:01:03.226Z,15.68
2022-10-18T06:03:30.008Z,19.55
2022-10-18T06:06:05.171Z,18.13
2022-10-18T06:08:32.458Z,15.57
2022-10-18T06:10:59.574Z,16.08
2022-10-18T06:13:26.615Z,15.30
2022-10-18T06:15:56.987Z,18.98
2022-10-18T06:18:23.744Z,18.83
2022-10-18T06:20:57.224Z,17.15
2022-10-18T06:23:24.215Z,18.70
2022-10-18T06:25:50.886Z,20.15
2022-10-18T06:28:18.633Z,15.55
2022-10-18T06:30:45.440Z,20.10
2022-10-18T06:33:12.269Z,19.05
2022-10-18T06:35:39.127Z,20.88
2022-10-18T06:38:05.876Z,16.20
2022-10-18T06:40:32.742Z,18.30
2022-10-18T06:43:00.492Z,22.57
2022-10-18T06:45:37.417Z,19.60
2022-10-18T06:48:04.400Z,19.50
2022-10-18T06:50:31.309Z,19.40
2022-10-18T06:52:58.160Z,18.85
2022-10-18T06:55:25.011Z,18.63
2022-10-18T06:57:53.099Z,20.75
2022-10-18T07:00:20.032Z,42.00
2022-10-18T07:02:46.848Z,19.15
2022-10-18T07:05:13.778Z,28.00
2022-10-18T07:07:40.904Z,40.63
2022-10-18T07:10:11.180Z,30.70
2022-10-18T07:12:39.559Z,17.30
2022-10-18T07:15:09.471Z,18.38
2022-10-18T07:17:36.941Z,14.93
2022-10-18T07:20:03.892Z,14.77
2022-10-18T07:22:31.019Z,16.50
2022-10-18T07:24:57.778Z,13.77
2022-10-18T07:27:24.564Z,15.05
2022-10-18T07:29:51.424Z,15.50
2022-10-18T07:32:18.226Z,14.57
2022-10-18T07:34:44.984Z,16.58
2022-10-18T07:37:11.924Z,16.35
2022-10-18T07:39:38.725Z,17.65
2022-10-18T07:42:07.175Z,13.45
2022-10-18T07:44:37.524Z,16.57
2022-10-18T07:47:04.344Z,15.60
2022-10-18T07:49:31.114Z,14.93
2022-10-18T07:51:57.964Z,15.95
2022-10-18T07:54:24.756Z,15.77
2022-10-18T07:56:51.590Z,12.63
2022-10-18T07:59:18.394Z,16.65
2022-10-18T08:01:45.296Z,14.32
2022-10-18T08:04:16.204Z,15.25
2022-10-18T08:06:43.602Z,14.82
2022-10-18T08:09:10.398Z,12.83
2022-10-18T08:11:37.219Z,13.13
2022-10-18T08:14:04.010Z,12.82
2022-10-18T08:19:02.583Z,13.10
2022-10-18T08:21:29.387Z,14.63
2022-10-18T08:23:56.253Z,15.43
2022-10-18T08:26:23.999Z,14.75
2022-10-18T08:29:10.255Z,12.90
2022-10-18T08:31:38.183Z,12.70
2022-10-18T08:34:04.968Z,12.97
2022-10-18T08:36:31.779Z,11.63
2022-10-18T08:38:58.888Z,11.52
2022-10-18T08:41:25.614Z,13.57
2022-10-18T08:44:07.197Z,12.52
2022-10-18T08:46:36.008Z,13.50
2022-10-18T08:49:05.754Z,12.93
2022-10-18T08:51:41.612Z,10.55
2022-10-18T08:54:13.877Z,12.20
2022-10-18T08:56:50.815Z,12.73
2022-10-18T08:59:19.928Z,11.87
2022-10-18T09:02:06.916Z,13.75
2022-10-18T09:04:52.430Z,12.65
2022-10-18T09:07:47.347Z,11.70
2022-10-18T09:10:38.669Z,11.93
2022-10-18T09:13:28.066Z,11.70
2022-10-18T09:16:11.058Z,12.27
2022-10-18T09:19:02.391Z,13.10
2022-10-18T09:21:55.088Z,11.95
2022-10-18T09:24:38.967Z,12.43
2022-10-18T09:27:15.353Z,12.30
2022-10-18T09:29:54.736Z,11.60
2022-10-18T09:32:48.524Z,12.30
2022-10-18T09:35:21.505Z,13.15
2022-10-18T09:37:50.217Z,11.95
2022-10-18T09:40:19.719Z,12.57
2022-10-18T09:42:55.490Z,10.23
2022-10-18T09:45:35.259Z,10.38
2022-10-18T09:48:18.928Z,12.40
2022-10-18T09:50:57.024Z,12.82
2022-10-18T09:53:42.202Z,12.93
2022-10-18T09:56:29.125Z,13.52
2022-10-18T09:58:55.957Z,15.98
2022-10-18T10:01:25.795Z,13.35
2022-10-18T10:03:53.783Z,11.95
2022-10-18T10:06:32.928Z,11.93
2022-10-18T10:09:01.245Z,12.23
2022-10-18T10:11:33.489Z,10.00
2022-10-18T10:14:18.370Z,11.40
2022-10-18T10:17:06.888Z,11.93
2022-10-18T10:19:37.478Z,10.53
2022-10-18T10:22:10.727Z,10.38
2022-10-18T10:24:47.141Z,10.52
2022-10-18T10:27:19.625Z,12.00
2022-10-18T10:29:46.417Z,12.40
2022-10-18T10:32:15.676Z,10.33
2022-10-18T10:34:44.736Z,13.32
2022-10-18T10:37:32.018Z,11.65
2022-10-18T10:40:18.421Z,13.65
2022-10-18T10:43:33.018Z,14.15
2022-10-18T10:46:02.611Z,10.13
2022-10-18T10:48:39.434Z,11.60
2022-10-18T10:51:09.816Z,13.80
2022-10-18T10:53:57.486Z,13.82
2022-10-18T10:56:32.595Z,13.93
2022-10-18T10:59:17.529Z,11.33
2022-10-18T11:01:44.444Z,12.35
2022-10-18T11:04:29.586Z,13.23
2022-10-18T11:07:21.144Z,12.45
2022-10-18T11:09:50.855Z,11.55
2022-10-18T11:12:34.477Z,12.67
2022-10-18T11:15:10.724Z,11.07
2022-10-18T11:18:28.624Z,13.95
2022-10-18T11:21:10.356Z,11.20
2022-10-18T11:23:39.241Z,13.75
2022-10-18T11:26:11.922Z,10.83
2022-10-18T11:29:06.284Z,14.27
2022-10-18T11:31:37.589Z,14.65
2022-10-18T11:34:42.351Z,11.50
2022-10-18T11:37:36.059Z,12.48
2022-10-18T11:40:31.279Z,11.60
2022-10-18T11:43:30.387Z,11.07
2022-10-18T11:46:32.252Z,10.48
2022-10-18T11:49:10.819Z,10.90
2022-10-18T11:52:08.667Z,11.82
2022-10-18T11:55:05.164Z,12.43
2022-10-18T11:57:53.173Z,12.43
2022-10-18T12:03:18.814Z,12.63
2022-10-18T12:05:48.792Z,11.48
2022-10-18T12:08:25.535Z,11.47
2022-10-18T12:11:05.142Z,12.68
2022-10-18T12:13:57.411Z,10.32
2022-10-18T12:16:49.543Z,11.57
2022-10-18T12:19:28.577Z,12.20
2022-10-18T12:21:58.357Z,12.73
2022-10-18T12:24:28.920Z,13.98
2022-10-18T12:27:00.566Z,16.27
2022-10-18T12:29:50.676Z,12.57
2022-10-18T12:32:31.652Z,13.50
2022-10-18T12:35:06.985Z,11.67
2022-10-18T12:38:18.837Z,13.13
2022-10-18T12:40:49.547Z,13.02
2022-10-18T12:43:22.957Z,12.32
2022-10-18T12:46:01.563Z,14.38
2022-10-18T12:49:10.319Z,13.80
2022-10-18T12:52:09.853Z,13.10
2022-10-18T12:54:39.742Z,13.75
2022-10-18T12:57:22.516Z,13.55
2022-10-18T12:59:49.709Z,12.85
2022-10-18T13:02:22.959Z,12.40
2022-10-18T13:04:50.088Z,13.20
2022-10-18T13:07:32.159Z,13.82
2022-10-18T13:10:08.261Z,13.82
2022-10-18T13:12:50.209Z,11.20
2022-10-18T13:15:34.192Z,13.23
2022-10-18T13:18:17.564Z,12.40
2022-10-18T13:21:05.799Z,12.18
2022-10-18T13:23:53.967Z,12.43
2022-10-18T13:26:29.783Z,15.27
2022-10-18T13:29:02.104Z,15.13
2022-10-18T13:31:37.326Z,11.30
2022-10-18T13:34:22.299Z,17.90
2022-10-18T13:37:10.873Z,13.82
2022-10-18T13:39:39.862Z,17.17
2022-10-18T13:42:15.735Z,13.07
2022-10-18T13:44:43.962Z,15.45
2022-10-18T13:47:12.355Z,13.82
2022-10-18T13:49:39.071Z,14.80
2022-10-18T13:52:17.805Z,13.02
2022-10-18T13:54:58.372Z,13.00
2022-10-18T13:57:59.226Z,15.10
2022-10-18T14:00:54.904Z,11.55
2022-10-18T14:06:27.167Z,11.52
2022-10-18T14:09:13.859Z,14.00
2022-10-18T14:12:11.568Z,13.27
2022-10-18T14:14:45.638Z,14.90
2022-10-18T14:17:26.024Z,10.55
2022-10-18T14:20:02.591Z,12.75
2022-10-18T14:22:41.195Z,13.03
2022-10-18T14:25:25.937Z,12.45
2022-10-18T14:28:12.356Z,13.73
2022-10-18T14:30:58.521Z,18.95
2022-10-18T14:33:36.272Z,18.33
2022-10-18T14:36:15.330Z,13.43
2022-10-18T14:38:59.010Z,14.02
2022-10-18T14:41:37.928Z,16.15
2022-10-18T14:44:29.470Z,15.32
2022-10-18T14:47:02.464Z,14.63
2022-10-18T14:49:30.582Z,13.43
2022-10-18T14:52:00.330Z,11.88
2022-10-18T14:54:32.945Z,11.35
2022-10-18T14:57:01.409Z,11.15
2022-10-18T14:59:32.480Z,10.27
2022-10-18T15:02:11.940Z,11.40
2022-10-18T15:04:38.852Z,11.88
2022-10-18T15:07:14.082Z,10.93
2022-10-18T15:09:42.036Z,11.57
2022-10-18T15:12:13.744Z,12.45
2022-10-18T15:14:42.615Z,11.90
2022-10-18T15:17:17.133Z,13.05
2022-10-18T15:20:01.815Z,11.85
2022-10-18T15:22:33.679Z,10.65
2022-10-18T15:25:17.474Z,11.27
2022-10-18T15:27:53.897Z,10.43
2022-10-18T15:30:26.203Z,10.60
2022-10-18T15:32:56.685Z,9.80
2022-10-18T15:35:28.962Z,11.15
2022-10-18T15:37:59.004Z,9.20
2022-10-18T15:40:32.756Z,10.00
2022-10-18T15:43:24.726Z,10.65
2022-10-18T15:45:54.835Z,10.10
2022-10-18T15:48:37.611Z,10.45
2022-10-18T15:51:22.275Z,10.50
2022-10-18T15:53:54.188Z,9.97
2022-10-18T15:56:35.315Z,10.38
2022-10-18T15:59:05.555Z,10.10
2022-10-18T16:01:45.932Z,10.80
2022-10-18T16:04:26.288Z,11.65
2022-10-18T16:06:54.058Z,14.23
2022-10-18T16:09:22.221Z,16.85
2022-10-18T16:11:52.832Z,14.98
2022-10-18T16:14:22.758Z,11.98
2022-10-18T16:16:54.018Z,15.55
2022-10-18T16:19:20.786Z,11.93
2022-10-18T16:21:47.582Z,14.95
2022-10-18T16:24:14.447Z,11.65
2022-10-18T16:26:41.839Z,16.08
2022-10-18T16:29:15.075Z,12.45
2022-10-18T16:31:42.640Z,11.07
2022-10-18T16:34:09.532Z,12.90
2022-10-18T16:36:36.430Z,17.27
2022-10-18T16:39:06.863Z,16.20
2022-10-18T16:41:34.253Z,15.45
2022-10-18T16:44:01.096Z,16.30
2022-10-18T16:46:32.303Z,15.30
2022-10-18T16:49:00.109Z,15.90
2022-10-18T16:51:28.321Z,12.40
2022-10-18T16:53:55.608Z,14.50
2022-10-18T16:56:29.457Z,12.57
2022-10-18T16:58:57.836Z,14.40
2022-10-18T17:01:26.085Z,13.38
2022-10-18T17:03:53.875Z,14.65
2022-10-18T17:06:28.617Z,12.93
2022-10-18T17:08:56.884Z,10.97
2022-10-18T17:11:26.674Z,12.18
2022-10-18T17:13:54.487Z,15.63
2022-10-18T17:16:31.050Z,13.50
2022-10-18T17:19:00.765Z,13.63
2022-10-18T17:21:29.497Z,14.87
2022-10-18T17:23:57.307Z,12.57
2022-10-18T17:26:29.389Z,12.85
2022-10-18T17:29:04.441Z,12.10
2022-10-18T17:31:33.191Z,14.02
2022-10-18T17:34:00.917Z,12.57
2022-10-18T17:36:30.289Z,14.32
2022-10-18T17:38:58.232Z,13.45
2022-10-18T17:41:25.821Z,14.35
2022-10-18T17:43:53.576Z,14.23
2022-10-18T17:46:22.351Z,12.33
2022-10-18T17:48:50.273Z,14.30
2022-10-18T17:51:18.164Z,14.98
2022-10-18T17:53:46.666Z,12.65
2022-10-18T17:56:16.361Z,14.55
2022-10-18T17:58:44.679Z,13.13
2022-10-18T18:01:17.032Z,15.95
2022-10-18T18:03:45.603Z,14.13
2022-10-18T18:06:17.139Z,14.35
2022-10-18T18:08:46.516Z,14.18
2022-10-18T18:11:14.141Z,14.30
2022-10-18T18:13:44.636Z,14.93
2022-10-18T18:16:18.443Z,13.52
2022-10-18T18:18:47.108Z,13.90
2022-10-18T18:21:14.846Z,16.98
2022-10-18T18:23:45.008Z,15.63
2022-10-18T18:26:15.133Z,14.23
2022-10-18T18:28:43.241Z,11.95
2022-10-18T18:31:34.549Z,15.68
2022-10-18T18:34:07.264Z,13.35
2022-10-18T18:36:35.036Z,16.33
2022-10-18T18:39:03.074Z,15.27
2022-10-18T18:41:30.778Z,13.32
2022-10-18T18:44:02.465Z,12.70
2022-10-18T18:46:32.450Z,13.50
2022-10-18T18:49:00.362Z,16.67
2022-10-18T18:51:29.474Z,13.45
2022-10-18T18:53:57.653Z,14.05
2022-10-18T18:56:27.823Z,14.65
2022-10-18T18:58:58.232Z,16.10
2022-10-18T19:01:36.961Z,13.67
2022-10-18T19:04:07.465Z,13.07
2022-10-18T19:06:41.374Z,10.70
2022-10-18T19:09:20.434Z,16.33
2022-10-18T19:11:55.279Z,12.30
2022-10-18T19:14:25.380Z,15.97
2022-10-18T19:16:57.885Z,14.88
2022-10-18T19:19:28.512Z,15.07
2022-10-18T19:21:59.042Z,18.52
2022-10-18T19:24:29.589Z,17.05
2022-10-18T19:27:01.638Z,16.40
2022-10-18T19:29:32.120Z,13.98
2022-10-18T19:32:04.764Z,13.85
2022-10-18T19:34:36.148Z,16.67
2022-10-18T19:37:04.505Z,12.73
2022-10-18T19:39:35.635Z,13.33
2022-10-18T19:42:06.657Z,13.98
2022-10-18T19:44:37.050Z,12.20
2022-10-18T19:47:06.896Z,12.40
2022-10-18T19:49:40.640Z,12.90
2022-10-18T19:52:08.012Z,14.53
2022-10-18T19:54:35.776Z,12.07
2022-10-18T19:57:03.488Z,15.00
2022-10-18T19:59:31.217Z,15.32
2022-10-18T20:01:58.965Z,7.85
2022-10-18T20:04:26.051Z,8.17
2022-10-18T20:06:53.219Z,7.63
2022-10-18T20:09:20.815Z,6.80
2022-10-18T20:11:48.571Z,9.73
2022-10-18T20:14:16.012Z,7.30
2022-10-18T20:16:43.185Z,5.90
2022-10-18T20:19:10.387Z,7.00
2022-10-18T20:21:37.384Z,7.53
2022-10-18T20:24:05.755Z,10.95
2022-10-18T20:26:33.625Z,9.38
2022-10-18T20:29:01.002Z,7.47
2022-10-18T20:31:30.330Z,8.93
2022-10-18T20:34:02.221Z,12.80
2022-10-18T20:36:31.099Z,7.18
2022-10-18T20:38:58.545Z,6.78
2022-10-18T20:41:30.794Z,7.50
2022-10-18T20:44:01.246Z,8.02
2022-10-18T20:46:31.388Z,6.90
2022-10-18T20:48:58.156Z,7.32
2022-10-18T20:51:25.210Z,6.53
2022-10-18T20:53:52.277Z,7.50
2022-10-18T20:56:21.706Z,6.45
2022-10-18T20:58:53.950Z,7.57
2022-10-18T21:01:27.198Z,5.72
2022-10-18T21:03:58.976Z,5.18
2022-10-18T21:06:28.951Z,5.47
2022-10-18T21:08:58.573Z,6.05
2022-10-18T21:11:26.903Z,5.85
2022-10-18T21:14:01.402Z,8.50
2022-10-18T21:16:32.803Z,5.32
2022-10-18T21:19:16.685Z,6.10
2022-10-18T21:21:45.687Z,5.88
2022-10-18T21:24:13.997Z,7.68
2022-10-18T21:26:40.879Z,5.53
2022-10-18T21:29:08.297Z,5.60
2022-10-18T21:31:37.560Z,9.23
2022-10-18T21:34:08.124Z,7.55
2022-10-18T21:36:37.082Z,4.78
2022-10-18T21:39:06.188Z,5.47
2022-10-18T21:41:34.078Z,7.15
2022-10-18T21:44:01.651Z,7.13
2022-10-18T21:46:29.230Z,5.95
2022-10-18T21:48:57.224Z,7.28
2022-10-18T21:51:26.637Z,6.10
2022-10-18T21:53:56.490Z,6.22
2022-10-18T21:56:34.791Z,6.07
2022-10-18T21:59:02.368Z,6.32
2022-10-18T22:01:32.422Z,5.28
2022-10-18T22:04:01.149Z,5.20
2022-10-18T22:06:29.380Z,6.03
2022-10-18T22:09:02.161Z,6.40
2022-10-18T22:11:34.661Z,5.13
2022-10-18T22:14:01.625Z,6.05
2022-10-18T22:16:28.676Z,5.18
2022-10-18T22:19:01.233Z,8.02
2022-10-18T22:21:28.501Z,6.20
2022-10-18T22:23:57.573Z,5.72
2022-10-18T22:26:34.936Z,5.50
2022-10-18T22:29:05.299Z,5.13
2022-10-18T22:31:36.845Z,5.38
2022-10-18T22:34:11.091Z,4.97
2022-10-18T22:36:38.007Z,5.10
2022-10-18T22:39:06.232Z,4.38
2022-10-18T22:41:34.698Z,6.30
2022-10-18T22:44:03.644Z,6.38
2022-10-18T22:46:32.333Z,6.27
2022-10-18T22:48:59.088Z,4.78
2022-10-18T22:51:26.015Z,4.55
2022-10-18T22:53:53.160Z,6.15
2022-10-18T22:56:22.086Z,5.00
2022-10-18T22:58:49.538Z,5.23
2022-10-18T23:01:20.010Z,7.07
2022-10-18T23:03:47.401Z,5.45
2022-10-18T23:06:23.674Z,4.90
2022-10-18T23:08:51.465Z,5.10
2022-10-18T23:11:18.881Z,5.43
2022-10-18T23:13:47.149Z,6.10
2022-10-18T23:16:14.527Z,7.03
2022-10-18T23:18:41.799Z,7.05
2022-10-18T23:21:11.088Z,5.90
2022-10-18T23:23:41.368Z,6.63
2022-10-18T23:26:11.792Z,6.40
2022-10-18T23:28:41.895Z,6.47
2022-10-18T23:31:14.928Z,7.13
2022-10-18T23:33:41.903Z,7.97
2022-10-18T23:36:09.268Z,7.43
2022-10-18T23:38:38.340Z,6.80
2022-10-18T23:41:06.941Z,7.55
2022-10-18T23:43:34.244Z,6.25
2022-10-18T23:46:01.081Z,7.15
2022-10-18T23:48:28.763Z,6.70
2022-10-18T23:50:55.923Z,6.25
2022-10-18T23:53:23.783Z,7.10
2022-10-18T23:55:58.783Z,7.10
2022-10-18T23:58:27.453Z,7.45
